Time;durP1;ratioP1;P1;durP2;ratioP2;P2;SDS_P1;SDS_P2;PMS_P1;PMS_P2;Temp;Humidity;BMP_temperature;BMP_pressure;BME280_temperature;BME280_humidity;BME280_pressure;Samples;Min_cycle;Max_cycle;Signal;HPM_P1;HPM_P2
2023/07/24 00:02:16;;;;;;;;;;;;;;;18.33;100.00;99492.33;104522;1257;59765;-57
2023/07/24 00:04:43;;;;;;;4.60;4.20;;;;;;;18.31;100.00;99485.71;104561;1260;74227;-57
2023/07/24 00:07:11;;;;;;;4.20;3.90;;;;;;;18.29;100.00;99480.16;104285;1276;69199;-56
2023/07/24 00:09:39;;;;;;;6.00;4.00;;;;;;;18.31;100.00;99482.57;104204;1260;72238;-56
2023/07/24 00:12:07;;;;;;;6.20;3.90;;;;;;;18.30;100.00;99478.52;104209;1260;61491;-57
2023/07/24 00:14:34;;;;;;;5.30;3.90;;;;;;;18.32;100.00;99475.90;104297;1261;59762;-57
2023/07/24 00:17:02;;;;;;;4.40;3.90;;;;;;;18.33;100.00;99476.18;104220;1261;72719;-57
2023/07/24 00:19:30;;;;;;;;;;;;;;;18.32;100.00;99472.89;104271;1262;70289;-57
2023/07/24 00:21:57;;;;;;;;;;;;;;;18.28;100.00;99466.41;104184;1263;72508;-57
2023/07/24 00:24:25;;;;;;;;;;;;;;;18.22;100.00;99471.31;104142;1262;62339;-56
2023/07/24 00:26:53;;;;;;;;;;;;;;;18.18;100.00;99467.23;104192;1257;60437;-57
2023/07/24 00:29:20;;;;;;;4.20;3.90;;;;;;;18.15;100.00;99466.39;104121;1263;72865;-56
2023/07/24 00:31:48;;;;;;;8.30;4.70;;;;;;;18.11;100.00;99465.61;104207;1260;70005;-57
2023/07/24 00:34:16;;;;;;;4.70;4.20;;;;;;;18.08;100.00;99463.69;104209;1262;72936;-56
2023/07/24 00:36:44;;;;;;;6.80;4.20;;;;;;;18.08;100.00;99463.92;104206;1260;61534;-56
2023/07/24 00:39:14;;;;;;;4.20;3.90;;;;;;;18.07;100.00;99465.19;104333;1260;59975;-57
2023/07/24 00:41:42;;;;;;;7.30;4.40;;;;;;;18.08;100.00;99461.96;104265;1261;71700;-56
2023/07/24 00:44:09;;;;;;;4.70;4.20;;;;;;;18.07;100.00;99460.60;104088;1278;69144;-56
2023/07/24 00:46:40;;;;;;;5.50;4.60;;;;;;;18.04;100.00;99460.09;104062;1261;72908;-56
2023/07/24 00:49:08;;;;;;;6.30;4.10;;;;;;;18.04;100.00;99453.90;104304;1260;62465;-57
2023/07/24 00:51:35;;;;;;;6.60;4.60;;;;;;;18.04;100.00;99456.04;104161;1263;59749;-56
2023/07/24 00:54:03;;;;;;;5.70;4.70;;;;;;;18.01;100.00;99451.86;107645;1256;72170;-57
2023/07/24 00:56:31;;;;;;;6.80;4.00;;;;;;;18.00;100.00;99453.36;104827;1260;69724;-57
2023/07/24 00:59:00;;;;;;;6.30;4.40;;;;;;;17.99;100.00;99454.84;104296;1263;72495;-57
2023/07/24 01:01:27;;;;;;;4.40;3.80;;;;;;;17.98;100.00;99450.86;104134;1257;61530;-57
2023/07/24 01:03:56;;;;;;;4.30;3.80;;;;;;;17.96;100.00;99454.73;104140;1260;59723;-57
2023/07/24 01:06:25;;;;;;;7.90;3.90;;;;;;;17.92;100.00;99454.48;104089;1262;72909;-57
2023/07/24 01:08:52;;;;;;;8.60;3.50;;;;;;;17.91;100.00;99456.69;104235;1267;69195;-57
2023/07/24 01:11:35;;;;;;;6.10;3.90;;;;;;;17.88;100.00;99454.08;104138;1272;72140;-55
2023/07/24 01:14:13;;;;;;;11.30;3.90;;;;;;;17.88;100.00;99453.54;104112;1273;61882;-57
2023/07/24 01:16:41;;;;;;;;;;;;;;;17.93;100.00;99454.27;104152;1263;60073;-56
2023/07/24 01:20:03;;;;;;;7.60;4.40;;;;;;;17.92;100.00;99448.63;104116;1263;73513;-57
2023/07/24 01:22:32;;;;;;;9.30;4.10;;;;;;;17.94;100.00;99448.66;103812;1268;69056;-57
2023/07/24 01:25:19;;;;;;;4.90;4.00;;;;;;;17.95;100.00;99447.02;104034;1263;72508;-56
2023/07/24 01:27:47;;;;;;;5.20;4.00;;;;;;;17.93;100.00;99447.14;104207;1258;61767;-58
2023/07/24 01:30:17;;;;;;;4.20;3.50;;;;;;;17.92;100.00;99451.66;104283;1265;60204;-57
2023/07/24 01:32:45;;;;;;;4.70;3.90;;;;;;;17.88;100.00;99453.90;104161;1257;72818;-57
2023/07/24 01:35:13;;;;;;;4.80;4.00;;;;;;;17.84;100.00;99451.16;103935;1266;69560;-57
2023/07/24 01:37:41;;;;;;;6.10;4.30;;;;;;;17.78;100.00;99450.89;104145;1257;72543;-57
2023/07/24 01:40:10;;;;;;;5.90;4.10;;;;;;;17.71;100.00;99450.55;104353;1258;61401;-57
2023/07/24 01:42:38;;;;;;;4.30;3.50;;;;;;;17.66;100.00;99457.10;106663;1260;60466;-57
2023/07/24 01:45:06;;;;;;;8.10;4.20;;;;;;;17.61;100.00;99458.71;104410;1257;72774;-57
2023/07/24 01:47:34;;;;;;;14.00;4.20;;;;;;;17.58;100.00;99460.58;107502;1256;69162;-58
2023/07/24 01:50:01;;;;;;;;;;;;;;;17.55;100.00;99461.15;104248;1258;71383;-57
2023/07/24 01:52:29;;;;;;;;;;;;;;;17.48;100.00;99463.59;104436;1264;60776;-57
2023/07/24 01:54:57;;;;;;;4.30;3.90;;;;;;;17.39;100.00;99459.01;104241;1262;59759;-57
2023/07/24 01:57:25;;;;;;;4.30;3.80;;;;;;;17.32;100.00;99464.23;104367;1263;72740;-57
2023/07/24 01:59:52;;;;;;;4.70;4.20;;;;;;;17.28;100.00;99465.93;104004;1263;69155;-56
2023/07/24 02:02:20;;;;;;;;;;;;;;;17.27;100.00;99465.30;104220;1273;72571;-56
2023/07/24 02:04:48;;;;;;;9.10;3.80;;;;;;;17.25;100.00;99466.52;104360;1257;62468;-57
2023/07/24 02:07:16;;;;;;;5.10;4.10;;;;;;;17.24;100.00;99465.38;104408;1257;60070;-56
2023/07/24 02:09:44;;;;;;;5.10;3.90;;;;;;;17.23;100.00;99467.89;104208;1263;72900;-57
2023/07/24 02:12:12;;;;;;;4.80;4.40;;;;;;;17.18;100.00;99470.23;104204;1276;69740;-56
2023/07/24 02:14:40;;;;;;;5.10;4.20;;;;;;;17.18;100.00;99472.75;104144;1262;71613;-57
2023/07/24 02:17:08;;;;;;;4.60;4.30;;;;;;;17.15;100.00;99476.63;104279;1262;60430;-57
2023/07/24 02:19:36;;;;;;;;;;;;;;;17.13;100.00;99474.48;104304;1263;59708;-57
2023/07/24 02:22:03;;;;;;;9.30;4.20;;;;;;;17.10;100.00;99476.14;104135;1263;72914;-57
2023/07/24 02:24:35;;;;;;;4.30;3.90;;;;;;;17.11;100.00;99473.42;104128;1270;68168;-57
2023/07/24 02:27:04;;;;;;;7.20;4.60;;;;;;;17.13;100.00;99475.54;104177;1276;73313;-57
2023/07/24 02:29:32;;;;;;;5.40;4.20;;;;;;;17.15;100.00;99479.70;104107;1271;60876;-56
2023/07/24 02:32:00;;;;;;;5.00;3.70;;;;;;;17.18;100.00;99480.48;104132;1262;59785;-56
2023/07/24 02:34:28;;;;;;;6.80;3.90;;;;;;;17.21;100.00;99477.77;104329;1270;73488;-58
2023/07/24 02:36:55;;;;;;;5.50;4.40;;;;;;;17.24;100.00;99478.85;104371;1262;69589;-57
2023/07/24 02:39:23;;;;;;;5.30;4.40;;;;;;;17.27;100.00;99480.17;104240;1276;72533;-57
2023/07/24 02:41:51;;;;;;;5.00;4.30;;;;;;;17.31;100.00;99484.72;104072;1263;62386;-57
2023/07/24 02:44:18;;;;;;;4.50;4.10;;;;;;;17.31;100.00;99487.16;104221;1256;62434;-56
2023/07/24 02:46:46;;;;;;;5.30;4.40;;;;;;;17.30;100.00;99481.59;104207;1262;72872;-57
2023/07/24 02:49:14;;;;;;;7.30;4.90;;;;;;;17.32;100.00;99476.99;104293;1272;69214;-57
2023/07/24 02:51:41;;;;;;;8.40;4.10;;;;;;;17.34;100.00;99474.95;104151;1263;71655;-56
2023/07/24 02:54:09;;;;;;;9.80;4.30;;;;;;;17.35;100.00;99476.97;107177;1257;61919;-57
2023/07/24 02:56:37;;;;;;;5.50;3.80;;;;;;;17.38;100.00;99477.27;107240;1261;59713;-57
2023/07/24 02:59:04;;;;;;;6.10;4.30;;;;;;;17.41;100.00;99477.21;104273;1262;74171;-56
2023/07/24 03:01:32;;;;;;;6.50;4.60;;;;;;;17.46;100.00;99476.89;104452;1263;69444;-56
2023/07/24 03:04:00;;;;;;;;;;;;;;;17.49;100.00;99477.17;104273;1258;72253;-57
2023/07/24 03:06:27;;;;;;;;;;;;;;;17.47;100.00;99480.89;104323;1263;61454;-56
2023/07/24 03:08:55;;;;;;;10.70;4.30;;;;;;;17.46;100.00;99479.86;104040;1263;60571;-56
2023/07/24 03:11:24;;;;;;;5.70;4.40;;;;;;;17.47;100.00;99483.66;104095;1272;73596;-56
2023/07/24 03:13:51;;;;;;;;;;;;;;;17.50;100.00;99482.59;104354;1260;69531;-57
2023/07/24 03:16:20;;;;;;;4.80;4.30;;;;;;;17.52;100.00;99484.41;104362;1258;72510;-57
2023/07/24 03:18:48;;;;;;;5.30;4.50;;;;;;;17.53;100.00;99481.81;104230;1271;61381;-57
2023/07/24 03:21:16;;;;;;;5.60;4.00;;;;;;;17.56;100.00;99480.73;104284;1258;60561;-55
2023/07/24 03:23:44;;;;;;;5.20;4.10;;;;;;;17.59;100.00;99480.02;104368;1268;73644;-56
2023/07/24 03:26:11;;;;;;;6.30;3.90;;;;;;;17.61;100.00;99481.80;104252;1261;70121;-57
2023/07/24 03:28:39;;;;;;;10.20;4.10;;;;;;;17.57;100.00;99477.98;104262;1258;72490;-58
2023/07/24 03:31:07;;;;;;;5.40;4.30;;;;;;;17.58;100.00;99477.19;104235;1260;60945;-57
2023/07/24 03:33:35;;;;;;;4.50;4.10;;;;;;;17.60;100.00;99474.80;104384;1257;60543;-57
2023/07/24 03:36:03;;;;;;;7.90;4.20;;;;;;;17.61;100.00;99474.36;104067;1263;74056;-57
2023/07/24 03:38:31;;;;;;;;;;;;;;;17.63;100.00;99475.95;104164;1273;69107;-57
2023/07/24 03:40:58;;;;;;;;;;;;;;;17.70;100.00;99472.29;104218;1263;72490;-57
2023/07/24 03:43:28;;;;;;;4.30;3.70;;;;;;;17.77;100.00;99467.27;104135;1265;60572;-57
2023/07/24 03:45:55;;;;;;;4.80;4.20;;;;;;;17.84;100.00;99471.23;104174;1272;60600;-58
2023/07/24 03:48:23;;;;;;;4.10;3.70;;;;;;;17.92;100.00;99469.91;104188;1261;72547;-56
2023/07/24 03:50:57;;;;;;;4.70;3.70;;;;;;;17.98;100.00;99469.84;104197;1269;70052;-56
2023/07/24 03:53:26;;;;;;;6.00;3.70;;;;;;;18.06;100.00;99468.84;104300;1258;73277;-57
2023/07/24 03:55:53;;;;;;;;;;;;;;;18.13;100.00;99466.00;104333;1261;61755;-57
2023/07/24 03:58:21;;;;;;;6.70;3.80;;;;;;;18.19;100.00;99464.13;104286;1263;60626;-57
2023/07/24 04:00:48;;;;;;;;;;;;;;;18.24;100.00;99464.95;104350;1260;73589;-57
2023/07/24 04:03:16;;;;;;;3.60;3.10;;;;;;;18.34;100.00;99461.77;104323;1257;69033;-57
2023/07/24 04:05:44;;;;;;;4.10;3.70;;;;;;;18.41;100.00;99463.52;104011;1279;73182;-56
2023/07/24 04:08:12;;;;;;;;;;;;;;;18.51;100.00;99462.16;104185;1263;61405;-57
2023/07/24 04:10:40;;;;;;;6.50;3.90;;;;;;;18.57;100.00;99459.21;104270;1260;60483;-57
2023/07/24 04:13:07;;;;;;;5.10;3.40;;;;;;;18.61;100.00;99459.94;104006;1270;74482;-57
2023/07/24 04:15:39;;;;;;;5.00;3.90;;;;;;;18.67;100.00;99459.08;104358;1257;69210;-57
2023/07/24 04:18:07;;;;;;;4.90;3.40;;;;;;;18.74;100.00;99461.74;104291;1276;72209;-57
2023/07/24 04:20:34;;;;;;;5.90;3.70;;;;;;;18.84;100.00;99460.64;104342;1257;60589;-58
2023/07/24 04:23:02;;;;;;;5.00;3.80;;;;;;;18.95;100.00;99460.18;104142;1274;62030;-57
2023/07/24 04:25:30;;;;;;;3.70;3.10;;;;;;;19.04;100.00;99460.80;107952;1255;74113;-58
2023/07/24 04:27:58;;;;;;;;;;;;;;;19.15;100.00;99454.07;107968;1255;70095;-56
2023/07/24 04:30:25;;;;;;;4.50;3.50;;;;;;;19.27;100.00;99452.61;107864;1260;72876;-56
2023/07/24 04:32:53;;;;;;;5.30;3.60;;;;;;;19.34;100.00;99452.33;107922;1257;61752;-56
2023/07/24 04:35:20;;;;;;;3.30;3.00;;;;;;;19.43;100.00;99451.97;107989;1257;59649;-56
2023/07/24 04:37:48;;;;;;;3.20;3.00;;;;;;;19.52;100.00;99449.08;108019;1256;75568;-56
2023/07/24 04:40:15;;;;;;;3.70;3.30;;;;;;;19.60;100.00;99444.73;107952;1255;68262;-59
2023/07/24 04:42:43;;;;;;;3.70;3.10;;;;;;;19.66;100.00;99439.73;107903;1257;72548;-56
2023/07/24 04:45:11;;;;;;;6.00;3.00;;;;;;;19.71;100.00;99440.20;107874;1255;61425;-56
2023/07/24 04:47:38;;;;;;;4.50;3.50;;;;;;;19.76;100.00;99440.72;107922;1257;60082;-55
2023/07/24 04:50:08;;;;;;;3.80;3.20;;;;;;;19.84;100.00;99436.48;107999;1256;73708;-55
2023/07/24 04:52:36;;;;;;;4.60;3.30;;;;;;;19.94;100.00;99436.52;108051;1256;70006;-56
2023/07/24 04:55:04;;;;;;;3.90;3.60;;;;;;;20.04;100.00;99435.63;107975;1255;72334;-56
2023/07/24 04:57:31;;;;;;;4.90;3.40;;;;;;;20.16;100.00;99433.36;107946;1256;61390;-56
2023/07/24 04:59:59;;;;;;;4.00;3.20;;;;;;;20.27;100.00;99432.10;107994;1257;62179;-55
2023/07/24 05:02:26;;;;;;;3.60;3.30;;;;;;;20.43;100.00;99424.70;107990;1258;73680;-55
2023/07/24 05:04:54;;;;;;;3.90;3.20;;;;;;;20.51;100.00;99422.35;108537;1251;69402;-56
2023/07/24 05:07:22;;;;;;;7.20;3.20;;;;;;;20.61;100.00;99420.06;108522;1253;73344;-56
2023/07/24 05:09:49;;;;;;;6.80;3.60;;;;;;;20.73;100.00;99417.09;108527;1252;61447;-57
2023/07/24 05:12:17;;;;;;;4.30;3.20;;;;;;;20.86;100.00;99420.43;108553;1251;59914;-56
2023/07/24 05:14:45;;;;;;;5.80;3.00;;;;;;;20.97;100.00;99414.55;108583;1253;73667;-56
2023/07/24 05:17:12;;;;;;;4.00;3.60;;;;;;;21.12;100.00;99412.85;108566;1251;69144;-56
2023/07/24 05:19:40;;;;;;;3.70;3.00;;;;;;;21.28;100.00;99410.59;108579;1251;72348;-56
2023/07/24 05:22:10;;;;;;;4.00;2.90;;;;;;;21.39;100.00;99410.65;108569;1253;61787;-56
2023/07/24 05:24:37;;;;;;;5.40;3.50;;;;;;;21.52;100.00;99407.69;108575;1253;60644;-57
2023/07/24 05:27:05;;;;;;;3.80;3.40;;;;;;;21.62;100.00;99399.42;108566;1253;73586;-57
2023/07/24 05:29:33;;;;;;;;;;;;;;;21.72;100.00;99401.40;108581;1253;69131;-56
2023/07/24 05:32:00;;;;;;;;;;;;;;;21.78;100.00;99397.37;108532;1251;72561;-56
2023/07/24 05:34:28;;;;;;;4.20;3.00;;;;;;;21.84;100.00;99396.36;108647;1256;61422;-56
2023/07/24 05:36:55;;;;;;;5.00;2.90;;;;;;;21.92;100.00;99401.45;108563;1252;60022;-56
2023/07/24 05:39:23;;;;;;;4.20;2.70;;;;;;;22.03;100.00;99398.15;108590;1251;73665;-56
2023/07/24 05:41:51;;;;;;;6.80;3.00;;;;;;;22.12;100.00;99398.55;108595;1256;69030;-56
2023/07/24 05:44:18;;;;;;;5.80;3.10;;;;;;;22.21;100.00;99396.95;108566;1252;72219;-55
2023/07/24 05:46:46;;;;;;;5.50;3.30;;;;;;;22.30;100.00;99390.96;108498;1251;61380;-55
2023/07/24 05:49:13;;;;;;;5.60;3.20;;;;;;;22.36;100.00;99389.44;108588;1251;59693;-56
2023/07/24 05:51:41;;;;;;;;;;;;;;;22.45;100.00;99390.77;108609;1251;74482;-56
2023/07/24 05:54:09;;;;;;;3.50;3.20;;;;;;;22.52;100.00;99387.21;108531;1251;69215;-57
2023/07/24 05:56:36;;;;;;;5.00;2.80;;;;;;;22.61;100.00;99386.01;108580;1251;72425;-56
2023/07/24 05:59:07;;;;;;;3.30;3.10;;;;;;;22.72;100.00;99382.58;108588;1253;61761;-56
2023/07/24 06:01:34;;;;;;;4.70;3.00;;;;;;;22.86;100.00;99382.13;108541;1254;59658;-56
2023/07/24 06:04:02;;;;;;;3.20;2.90;;;;;;;22.99;100.00;99376.20;108527;1252;74250;-55
2023/07/24 06:06:30;;;;;;;4.40;2.90;;;;;;;23.14;100.00;99375.88;108552;1251;69162;-58
2023/07/24 06:08:58;;;;;;;3.30;2.90;;;;;;;23.24;100.00;99377.32;108625;1251;72540;-56
2023/07/24 06:11:26;;;;;;;4.40;2.70;;;;;;;23.34;100.00;99374.55;108569;1254;59749;-56
2023/07/24 06:13:54;;;;;;;8.70;2.80;;;;;;;23.47;100.00;99366.27;108602;1251;59909;-56
2023/07/24 06:16:22;;;;;;;3.70;2.50;;;;;;;23.57;100.00;99363.80;108535;1256;73665;-56
2023/07/24 06:18:49;;;;;;;3.20;2.90;;;;;;;23.65;100.00;99360.11;108535;1251;69015;-56
2023/07/24 06:21:17;;;;;;;4.00;2.70;;;;;;;23.76;100.00;99359.63;108605;1251;75732;-56
2023/07/24 06:23:44;;;;;;;4.00;2.70;;;;;;;23.86;100.00;99360.56;108542;1253;59824;-56
2023/07/24 06:26:14;;;;;;;3.70;3.30;;;;;;;23.98;100.00;99361.45;108638;1251;60156;-56
2023/07/24 06:28:42;;;;;;;3.40;2.90;;;;;;;24.11;100.00;99356.51;108598;1251;73712;-56
2023/07/24 06:31:10;;;;;;;2.40;2.20;;;;;;;24.20;100.00;99352.02;108624;1251;69006;-57
2023/07/24 06:33:38;;;;;;;3.40;2.50;;;;;;;24.25;100.00;99351.84;108650;1254;71721;-56
2023/07/24 06:36:08;;;;;;;;;;;;;;;24.32;100.00;99349.92;108628;1251;60109;-56
2023/07/24 06:38:36;;;;;;;5.70;2.80;;;;;;;24.39;100.00;99352.25;108576;1251;59623;-57
2023/07/24 06:41:04;;;;;;;3.40;2.90;;;;;;;24.49;100.00;99352.56;108608;1252;74508;-57
2023/07/24 06:43:31;;;;;;;;;;;;;;;24.59;100.00;99350.59;108626;1253;70139;-56
2023/07/24 06:45:59;;;;;;;;;;;;;;;24.64;100.00;99343.80;108490;1251;72361;-57
2023/07/24 06:48:26;;;;;;;;;;;;;;;24.69;100.00;99336.52;108587;1252;60007;-57
2023/07/24 06:50:54;;;;;;;3.90;2.60;;;;;;;24.75;100.00;99338.20;108602;1253;59576;-56
2023/07/24 06:53:22;;;;;;;4.80;2.70;;;;;;;24.82;100.00;99337.02;108487;1254;73703;-57
2023/07/24 06:55:49;;;;;;;6.40;2.50;;;;;;;24.91;100.00;99337.00;108443;1253;69237;-57
2023/07/24 06:58:17;;;;;;;5.80;3.10;;;;;;;24.99;100.00;99329.02;108413;1251;73231;-57
2023/07/24 07:00:45;;;;;;;4.50;2.90;;;;;;;25.07;100.00;99325.63;108384;1252;60214;-56
2023/07/24 07:03:14;;;;;;;3.90;2.80;;;;;;;25.14;100.00;99327.02;108463;1251;60073;-56
2023/07/24 07:05:42;;;;;;;2.90;2.60;;;;;;;25.28;100.00;99324.11;108407;1254;73648;-56
2023/07/24 07:08:10;;;;;;;2.90;2.70;;;;;;;25.39;100.00;99324.70;108443;1254;69584;-57
2023/07/24 07:10:37;;;;;;;3.30;3.00;;;;;;;25.41;100.00;99323.38;108475;1251;72338;-56
2023/07/24 07:13:05;;;;;;;2.90;2.60;;;;;;;25.46;100.00;99321.14;108537;1253;60229;-56
2023/07/24 07:15:33;;;;;;;2.90;2.70;;;;;;;25.54;99.49;99324.28;108574;1251;60038;-57
2023/07/24 07:18:00;;;;;;;3.20;2.90;;;;;;;25.56;97.69;99319.73;108575;1251;74076;-56
2023/07/24 07:20:28;;;;;;;3.00;2.80;;;;;;;25.58;96.45;99319.52;108611;1254;69593;-57
2023/07/24 07:22:56;;;;;;;6.50;2.70;;;;;;;25.63;100.00;99316.75;108643;1254;72187;-56
2023/07/24 07:25:23;;;;;;;3.50;3.20;;;;;;;25.71;99.39;99318.23;108609;1251;58650;-56
2023/07/24 07:27:51;;;;;;;7.10;3.10;;;;;;;25.79;96.18;99314.38;108577;1251;59679;-56
2023/07/24 07:30:19;;;;;;;4.20;2.70;;;;;;;25.85;98.99;99312.23;108578;1253;74057;-57
2023/07/24 07:32:48;;;;;;;3.40;2.90;;;;;;;25.93;100.00;99302.91;108629;1252;68059;-56
2023/07/24 07:35:16;;;;;;;2.80;2.60;;;;;;;26.03;99.64;99300.91;108534;1254;72322;-56
2023/07/24 07:37:43;;;;;;;3.60;3.20;;;;;;;26.12;97.66;99304.75;108480;1253;60977;-58
2023/07/24 07:40:11;;;;;;;5.00;3.30;;;;;;;26.22;94.50;99303.46;108545;1251;60664;-57
2023/07/24 07:42:39;;;;;;;6.10;3.40;;;;;;;26.26;94.40;99302.80;108581;1254;73660;-56
2023/07/24 07:45:09;;;;;;;3.20;2.80;;;;;;;26.32;92.56;99302.04;108533;1251;68168;-56
2023/07/24 07:47:37;;;;;;;4.20;2.70;;;;;;;26.42;91.25;99302.59;108557;1252;73281;-56
2023/07/24 07:50:05;;;;;;;;;;;;;;;26.50;88.64;99299.27;108560;1254;59816;-57
2023/07/24 07:52:32;;;;;;;3.00;2.80;;;;;;;26.57;92.11;99297.23;108550;1253;59826;-57
2023/07/24 07:55:00;;;;;;;4.20;3.20;;;;;;;26.63;89.40;99300.14;108530;1251;73745;-57
2023/07/24 07:57:28;;;;;;;3.80;3.30;;;;;;;26.73;90.09;99300.33;108540;1251;70474;-57
2023/07/24 07:59:55;;;;;;;6.30;3.40;;;;;;;26.81;88.30;99298.85;108510;1251;72542;-58
2023/07/24 08:02:23;;;;;;;;;;;;;;;26.84;85.38;99303.52;108545;1252;60869;-57
2023/07/24 08:04:51;;;;;;;3.10;2.80;;;;;;;26.78;88.59;99301.54;108598;1251;59429;-57
2023/07/24 08:07:18;;;;;;;3.30;3.00;;;;;;;26.85;86.17;99299.10;108493;1251;73532;-56
2023/07/24 08:09:46;;;;;;;6.20;3.50;;;;;;;26.96;87.70;99297.47;108582;1251;68456;-57
2023/07/24 08:12:13;;;;;;;;;;;;;;;27.02;87.55;99296.14;108538;1252;73030;-57
2023/07/24 08:14:41;;;;;;;3.80;3.50;;;;;;;27.11;86.78;99296.95;108548;1254;60738;-57
2023/07/24 08:17:09;;;;;;;3.30;3.00;;;;;;;27.17;88.00;99300.01;108586;1252;60552;-57
2023/07/24 08:19:37;;;;;;;;;;;;;;;27.27;89.67;99293.84;108592;1251;73728;-57
2023/07/24 08:22:05;;;;;;;3.90;3.50;;;;;;;27.35;87.34;99294.69;108592;1251;69003;-57
2023/07/24 08:24:36;;;;;;;4.10;3.80;;;;;;;27.40;88.64;99289.28;108579;1251;72374;-57
2023/07/24 08:27:04;;;;;;;5.80;3.10;;;;;;;27.45;84.21;99288.46;108538;1253;60128;-57
2023/07/24 08:32:36;;;;;;;5.00;3.60;;;;;;;27.54;85.93;99288.27;101936;1283;602327;-57
2023/07/24 08:35:05;;;;;;;6.20;3.60;;;;;;;27.56;83.96;99288.58;103643;1272;59707;-57
2023/07/24 08:37:33;;;;;;;4.10;3.30;;;;;;;27.61;85.18;99293.56;103830;1270;61937;-58
2023/07/24 08:40:00;;;;;;;5.10;3.60;;;;;;;27.60;85.65;99283.96;103756;1271;72432;-57
2023/07/24 08:42:28;;;;;;;;;;;;;;;27.62;91.23;99284.14;103753;1267;69722;-56
2023/07/24 08:44:55;;;;;;;;;;;;;;;27.66;91.39;99285.61;103689;1266;72646;-54
2023/07/24 08:47:23;;;;;;;4.40;3.40;;;;;;;27.75;90.07;99283.27;103776;1264;359555;-56
2023/07/24 08:49:51;;;;;;;3.80;3.30;;;;;;;27.79;92.88;99285.61;103772;1266;59676;-57
2023/07/24 08:52:18;;;;;;;4.70;3.50;;;;;;;27.86;90.38;99281.14;104025;1267;72183;-56
2023/07/24 08:55:03;;;;;;;4.90;3.00;;;;;;;27.85;90.00;99279.16;104295;1267;70134;-55
2023/07/24 08:57:31;;;;;;;5.40;3.40;;;;;;;27.90;89.02;99278.72;104345;1264;71427;-57
2023/07/24 09:00:00;;;;;;;;;;;;;;;27.96;85.08;99277.61;106768;1263;59786;-55
2023/07/24 09:02:28;;;;;;;6.90;3.90;;;;;;;28.04;86.11;99280.15;105720;1264;59781;-57
2023/07/24 09:04:56;;;;;;;5.60;3.90;;;;;;;28.02;85.00;99280.23;104919;1263;73070;-55
2023/07/24 09:07:23;;;;;;;;;;;;;;;28.00;85.08;99282.64;104500;1266;69215;-55
2023/07/24 09:09:51;;;;;;;3.70;3.20;;;;;;;28.03;86.77;99275.77;104605;1263;72342;-55
2023/07/24 09:12:18;;;;;;;;;;;;;;;28.09;89.47;99273.70;104356;1268;59647;-57
2023/07/24 09:14:46;;;;;;;3.20;2.90;;;;;;;28.17;88.49;99266.68;103869;1268;59772;-56
2023/07/24 09:17:14;;;;;;;;;;;;;;;28.25;88.75;99269.83;104046;1280;72884;-55
2023/07/24 09:19:43;;;;;;;3.90;3.20;;;;;;;28.32;84.77;99266.95;104152;1266;69206;-55
2023/07/24 09:22:15;;;;;;;3.50;3.20;;;;;;;28.33;82.92;99258.73;104073;1266;72485;-57
2023/07/24 09:24:56;;;;;;;4.80;3.20;;;;;;;28.38;86.81;99258.62;104093;1263;59816;-57
2023/07/24 09:27:26;;;;;;;3.70;3.40;;;;;;;28.42;81.02;99252.76;104066;1268;59800;-56
2023/07/24 09:29:55;;;;;;;4.80;3.00;;;;;;;28.44;81.77;99251.42;104499;1268;72020;-56
2023/07/24 09:32:26;;;;;;;4.90;3.60;;;;;;;28.48;80.21;99250.31;104602;1266;69341;-59
2023/07/24 09:34:54;;;;;;;4.30;3.80;;;;;;;28.51;77.19;99251.75;104158;1269;75758;-56
2023/07/24 09:37:40;;;;;;;5.40;3.60;;;;;;;28.51;77.62;99246.73;104036;1266;59879;-56
2023/07/24 09:40:12;;;;;;;6.30;3.60;;;;;;;28.57;80.58;99245.64;104253;1269;59724;-58
2023/07/24 09:42:40;;;;;;;5.80;3.70;;;;;;;28.63;79.56;99240.45;104321;1263;72902;-58
2023/07/24 09:45:24;;;;;;;6.50;3.20;;;;;;;28.67;78.22;99238.49;104018;1269;69179;-59
2023/07/24 09:47:56;;;;;;;;;;;;;;;28.73;80.08;99236.52;103871;1264;72348;-58
2023/07/24 09:50:32;;;;;;;3.50;3.20;;;;;;;28.80;80.13;99231.60;104060;1263;59767;-59
2023/07/24 09:52:59;;;;;;;4.10;3.40;;;;;;;28.89;80.22;99227.26;103919;1263;59825;-59
2023/07/24 09:55:30;;;;;;;7.70;3.40;;;;;;;28.98;79.52;99225.55;103959;1264;72916;-58
2023/07/24 09:57:58;;;;;;;5.20;3.60;;;;;;;29.11;73.76;99220.14;104110;1263;69061;-58
2023/07/24 10:00:26;;;;;;;6.00;3.80;;;;;;;29.17;75.13;99224.44;104026;1263;72102;-56
2023/07/24 10:02:55;;;;;;;3.70;3.40;;;;;;;29.19;72.52;99221.88;104229;1264;60816;-56
2023/07/24 10:05:23;;;;;;;4.40;4.00;;;;;;;29.17;72.82;99221.77;104271;1264;59709;-55
2023/07/24 10:07:51;;;;;;;;;;;;;;;29.16;70.06;99215.77;104324;1264;73188;-56
2023/07/24 10:10:19;;;;;;;4.10;3.70;;;;;;;29.15;68.94;99213.52;103985;1264;69886;-56
2023/07/24 10:12:46;;;;;;;;;;;;;;;29.14;65.90;99205.73;103904;1277;73455;-55
2023/07/24 10:15:14;;;;;;;3.90;3.60;;;;;;;29.09;70.62;99207.78;104027;1264;59857;-56
2023/07/24 10:17:42;;;;;;;4.00;3.70;;;;;;;29.09;71.21;99201.42;104225;1266;60110;-56
2023/07/24 10:20:10;;;;;;;3.90;3.60;;;;;;;29.14;72.47;99204.30;104466;1260;72799;-55
2023/07/24 10:22:42;;;;;;;3.70;3.40;;;;;;;29.26;70.13;99205.64;104310;1257;69141;-55
2023/07/24 10:25:10;;;;;;;6.00;3.50;;;;;;;29.34;69.09;99199.49;104236;1261;72802;-55
2023/07/24 10:27:44;;;;;;;5.70;4.20;;;;;;;29.40;70.86;99203.87;104341;1260;59787;-56
2023/07/24 10:30:11;;;;;;;5.10;4.20;;;;;;;29.46;64.79;99198.04;104405;1260;59784;-56
2023/07/24 10:33:06;;;;;;;;;;;;;;;29.48;65.01;99191.21;104185;1262;73684;-56
2023/07/24 10:35:47;;;;;;;5.90;3.30;;;;;;;29.51;64.68;99186.23;104180;1263;69408;-57
2023/07/24 10:38:16;;;;;;;3.70;3.40;;;;;;;29.52;65.71;99188.45;104104;1276;73365;-56
2023/07/24 10:40:50;;;;;;;4.30;3.20;;;;;;;29.43;66.85;99189.14;104176;1263;59793;-56
2023/07/24 10:43:19;;;;;;;3.90;3.60;;;;;;;29.44;67.28;99192.89;104094;1257;60097;-56
2023/07/24 10:45:51;;;;;;;4.50;3.90;;;;;;;29.49;69.30;99190.14;104250;1256;73299;-58
2023/07/24 10:48:20;;;;;;;6.20;3.90;;;;;;;29.56;68.68;99190.52;104276;1260;69144;-57
2023/07/24 10:50:49;;;;;;;7.20;3.60;;;;;;;29.70;70.23;99186.48;104157;1279;72485;-57
2023/07/24 10:53:21;;;;;;;5.20;4.00;;;;;;;29.83;63.57;99191.14;104369;1261;60730;-56
2023/07/24 10:55:52;;;;;;;5.40;4.20;;;;;;;29.83;61.26;99182.67;104404;1256;60135;-55
2023/07/24 10:58:21;;;;;;;5.00;4.10;;;;;;;29.88;58.39;99183.90;104323;1274;73769;-55
2023/07/24 11:00:49;;;;;;;4.40;4.00;;;;;;;29.90;54.74;99182.21;107581;1257;70588;-56
2023/07/24 11:03:16;;;;;;;;;;;;;;;29.91;54.46;99173.33;106845;1260;74263;-55
2023/07/24 11:05:44;;;;;;;4.10;3.70;;;;;;;29.94;54.14;99175.84;104137;1260;59845;-54
2023/07/24 11:08:16;;;;;;;6.30;4.00;;;;;;;29.96;54.50;99166.38;104715;1258;60066;-56
2023/07/24 11:12:16;;;;;;;4.60;4.20;;;;;;;29.72;54.53;99166.84;101373;1290;601601;-57
2023/07/24 11:14:51;;;;;;;4.30;3.90;;;;;;;29.92;54.16;99159.48;104001;1267;60193;-56
2023/07/24 11:17:18;;;;;;;4.90;3.70;;;;;;;29.99;54.77;99156.63;103729;1266;59755;-56
2023/07/24 11:19:46;;;;;;;7.80;4.50;;;;;;;30.02;56.43;99153.11;103547;1282;72058;-56
2023/07/24 11:22:13;;;;;;;;;;;;;;;30.06;55.38;99148.98;103584;1273;68269;-56
2023/07/24 11:24:43;;;;;;;4.80;4.20;;;;;;;30.06;54.78;99146.65;103388;1271;299032;-56
2023/07/24 11:27:15;;;;;;;4.10;3.70;;;;;;;30.12;53.26;99146.91;103865;1269;60158;-56
2023/07/24 11:29:48;;;;;;;4.20;3.90;;;;;;;30.21;52.18;99144.81;104123;1267;59472;-57
2023/07/24 11:32:19;;;;;;;6.50;4.40;;;;;;;30.26;50.80;99148.35;104077;1270;72493;-57
2023/07/24 11:34:48;;;;;;;4.80;4.20;;;;;;;30.22;49.50;99144.73;103876;1269;69132;-56
2023/07/24 11:37:16;;;;;;;4.00;3.70;;;;;;;30.24;49.36;99145.36;103971;1270;72160;-57
2023/07/24 11:39:43;;;;;;;4.50;4.00;;;;;;;30.29;49.56;99141.29;103619;1273;59825;-57
2023/07/24 11:42:11;;;;;;;4.50;4.00;;;;;;;30.34;50.13;99134.52;103992;1273;59832;-58